Time;durP1;ratioP1;P1;durP2;ratioP2;P2;SDS_P1;SDS_P2;PMS_P1;PMS_P2;Temp;Humidity;BMP_temperature;BMP_pressure;BME280_temperature;BME280_humidity;BME280_pressure;Samples;Min_cycle;Max_cycle;Signal;HPM_P1;HPM_P2
2021/06/24 00:02:07;;;;;;;5.60;2.95;;;;;;;;;;5130513;27;37179;-79
2021/06/24 00:04:34;;;;;;;7.75;2.50;;;;;;;;;;5149955;27;37633;-80
2021/06/24 00:07:01;;;;;;;7.65;2.92;;;;;;;;;;5143495;27;36266;-81
2021/06/24 00:09:35;;;;;;;7.40;3.00;;;;;;;;;;5129325;27;47072;-81
2021/06/24 00:12:02;;;;;;;6.55;2.85;;;;;;;;;;5115750;27;39027;-80
2021/06/24 00:14:29;;;;;;;6.43;2.85;;;;;;;;;;5131023;27;48852;-81
2021/06/24 00:16:57;;;;;;;5.47;2.65;;;;;;;;;;5140794;27;36996;-80
2021/06/24 00:19:24;;;;;;;4.32;2.85;;;;;;;;;;5131503;27;39230;-81
2021/06/24 00:21:53;;;;;;;5.78;2.80;;;;;;;;;;5137321;27;37563;-80
2021/06/24 00:24:25;;;;;;;4.10;2.45;;;;;;;;;;5132061;27;37424;-80
2021/06/24 00:26:51;;;;;;;5.95;2.25;;;;;;;;;;5130201;27;36378;-80
2021/06/24 00:29:18;;;;;;;7.45;3.00;;;;;;;;;;5105441;27;37920;-80
2021/06/24 00:31:44;;;;;;;3.85;2.28;;;;;;;;;;5093609;27;37992;-80
2021/06/24 00:34:10;;;;;;;4.72;2.47;;;;;;;;;;5097463;27;35990;-81
2021/06/24 00:36:38;;;;;;;3.88;2.22;;;;;;;;;;5118703;27;37352;-80
2021/06/24 00:39:05;;;;;;;5.43;2.58;;;;;;;;;;5105633;27;37644;-81
2021/06/24 00:41:38;;;;;;;3.30;2.30;;;;;;;;;;5102494;27;38428;-80
2021/06/24 00:44:05;;;;;;;4.50;2.50;;;;;;;;;;5115620;27;37579;-81
2021/06/24 00:46:32;;;;;;;5.65;2.75;;;;;;;;;;5097525;28;39497;-80
2021/06/24 00:49:03;;;;;;;5.53;2.53;;;;;;;;;;5108311;27;37795;-80
2021/06/24 00:51:29;;;;;;;3.42;2.40;;;;;;;;;;5091586;27;48921;-80
2021/06/24 00:53:56;;;;;;;8.05;3.13;;;;;;;;;;5101096;27;37167;-80
2021/06/24 00:56:27;;;;;;;6.75;3.03;;;;;;;;;;5090005;27;37515;-79
2021/06/24 00:58:53;;;;;;;4.32;2.40;;;;;;;;;;5111472;27;39662;-81
2021/06/24 01:01:27;;;;;;;7.03;2.67;;;;;;;;;;5102801;27;38944;-81
2021/06/24 01:03:57;;;;;;;3.22;2.05;;;;;;;;;;5084798;27;36219;-80
2021/06/24 01:06:24;;;;;;;4.18;2.33;;;;;;;;;;5086260;27;39422;-81
2021/06/24 01:08:51;;;;;;;4.05;2.20;;;;;;;;;;5129121;27;39436;-80
2021/06/24 01:11:31;;;;;;;6.35;3.10;;;;;;;;;;5093393;27;39638;-80
2021/06/24 01:14:08;;;;;;;4.68;2.50;;;;;;;;;;5099878;27;37846;-81
2021/06/24 01:16:37;;;;;;;5.18;2.58;;;;;;;;;;5072464;27;48809;-82
2021/06/24 01:19:12;;;;;;;6.47;3.08;;;;;;;;;;5117905;27;39148;-81
2021/06/24 01:21:39;;;;;;;4.85;2.75;;;;;;;;;;5096063;27;38963;-80
2021/06/24 01:24:05;;;;;;;5.25;3.10;;;;;;;;;;5099126;27;36699;-81
2021/06/24 01:26:32;;;;;;;5.85;2.70;;;;;;;;;;5094343;27;35947;-81
2021/06/24 01:28:58;;;;;;;7.15;2.63;;;;;;;;;;5104628;27;37731;-80
2021/06/24 01:31:25;;;;;;;6.75;3.40;;;;;;;;;;5128789;27;38065;-80
2021/06/24 01:33:51;;;;;;;6.88;3.15;;;;;;;;;;5114060;27;38116;-80
2021/06/24 01:36:19;;;;;;;6.65;3.05;;;;;;;;;;5097137;27;37780;-80
2021/06/24 01:38:50;;;;;;;5.63;2.90;;;;;;;;;;5104249;27;39365;-80
2021/06/24 01:41:17;;;;;;;5.60;2.72;;;;;;;;;;5118568;27;39721;-80
2021/06/24 01:43:46;;;;;;;3.95;2.85;;;;;;;;;;5134114;27;36181;-80
2021/06/24 01:46:19;;;;;;;6.63;3.25;;;;;;;;;;5094660;27;35884;-80
2021/06/24 01:48:45;;;;;;;3.80;2.78;;;;;;;;;;5127542;27;39461;-80
2021/06/24 01:51:12;;;;;;;6.80;2.83;;;;;;;;;;5114451;27;37188;-81
2021/06/24 01:53:41;;;;;;;7.38;2.95;;;;;;;;;;5118563;27;37030;-79
2021/06/24 01:56:12;;;;;;;7.18;3.03;;;;;;;;;;5131982;27;37490;-79
2021/06/24 01:58:38;;;;;;;8.35;3.25;;;;;;;;;;5115719;27;39187;-80
2021/06/24 02:01:06;;;;;;;4.85;3.00;;;;;;;;;;5100720;27;38246;-80
2021/06/24 02:03:37;;;;;;;5.22;3.30;;;;;;;;;;5129489;27;38464;-79
2021/06/24 02:06:10;;;;;;;6.68;3.40;;;;;;;;;;5140622;27;38059;-81
2021/06/24 02:08:37;;;;;;;6.15;3.92;;;;;;;;;;5119069;27;38126;-80
2021/06/24 02:11:06;;;;;;;7.13;3.83;;;;;;;;;;5116664;27;39568;-80
2021/06/24 02:13:33;;;;;;;7.90;3.80;;;;;;;;;;5138398;27;37203;-79
2021/06/24 02:16:03;;;;;;;7.95;4.10;;;;;;;;;;5136220;27;35464;-81
2021/06/24 02:18:30;;;;;;;6.15;3.33;;;;;;;;;;5133939;27;47858;-79
2021/06/24 02:20:56;;;;;;;7.53;4.28;;;;;;;;;;5139101;27;37636;-80
2021/06/24 02:23:31;;;;;;;6.15;4.13;;;;;;;;;;5129414;27;37387;-80
2021/06/24 02:26:01;;;;;;;5.18;4.32;;;;;;;;;;5132652;27;37354;-81
2021/06/24 02:28:28;;;;;;;5.40;4.05;;;;;;;;;;5118135;27;48976;-81
2021/06/24 02:30:54;;;;;;;7.97;4.60;;;;;;;;;;5122276;27;38529;-81
2021/06/24 02:33:21;;;;;;;8.20;4.60;;;;;;;;;;5132397;27;36841;-81
2021/06/24 02:35:56;;;;;;;8.63;4.60;;;;;;;;;;5138393;27;38296;-81
2021/06/24 02:38:27;;;;;;;5.43;4.63;;;;;;;;;;5127176;27;39340;-80
2021/06/24 02:40:55;;;;;;;8.38;5.00;;;;;;;;;;5129612;27;39248;-81
2021/06/24 02:43:21;;;;;;;7.40;4.85;;;;;;;;;;5147578;27;37990;-80
2021/06/24 02:45:48;;;;;;;7.00;4.40;;;;;;;;;;5138395;27;37792;-80
2021/06/24 02:48:14;;;;;;;7.90;4.50;;;;;;;;;;5117652;27;37661;-80
2021/06/24 02:50:41;;;;;;;11.32;4.72;;;;;;;;;;5115768;27;37617;-80
2021/06/24 02:53:08;;;;;;;5.72;4.63;;;;;;;;;;5110666;27;37697;-80
2021/06/24 02:55:34;;;;;;;4.20;3.28;;;;;;;;;;5131096;27;36984;-80
2021/06/24 02:58:01;;;;;;;7.68;4.32;;;;;;;;;;5132740;27;40021;-80
2021/06/24 03:00:31;;;;;;;6.38;4.35;;;;;;;;;;5112635;27;49470;-82
2021/06/24 03:02:58;;;;;;;5.60;4.43;;;;;;;;;;5114131;27;37869;-80
2021/06/24 03:05:25;;;;;;;5.85;3.85;;;;;;;;;;5120433;27;35947;-81
2021/06/24 03:07:51;;;;;;;8.00;4.20;;;;;;;;;;5121742;27;38100;-80
2021/06/24 03:10:28;;;;;;;;;;;;;;;;;;;;;
2021/06/24 03:13:01;;;;;;;3.83;3.42;;;;;;;;;;5130345;27;38617;-81
2021/06/24 03:15:32;;;;;;;5.65;4.55;;;;;;;;;;5125073;27;37754;-80
2021/06/24 03:17:59;;;;;;;7.18;4.43;;;;;;;;;;5130543;27;39049;-81
2021/06/24 03:20:28;;;;;;;6.93;4.78;;;;;;;;;;5102814;27;39377;-80
2021/06/24 03:23:03;;;;;;;8.52;4.55;;;;;;;;;;5115355;27;38357;-79
2021/06/24 03:25:30;;;;;;;5.68;4.45;;;;;;;;;;5109296;27;49160;-80
2021/06/24 03:27:56;;;;;;;7.03;4.57;;;;;;;;;;5128700;27;37820;-80
2021/06/24 03:30:24;;;;;;;6.32;4.80;;;;;;;;;;5100880;27;38524;-81
2021/06/24 03:32:51;;;;;;;11.25;5.72;;;;;;;;;;5105736;27;37746;-80
2021/06/24 03:35:18;;;;;;;5.78;4.50;;;;;;;;;;5115020;27;36744;-80
2021/06/24 03:37:45;;;;;;;6.80;3.95;;;;;;;;;;5107802;27;40076;-82
2021/06/24 03:40:17;;;;;;;6.80;4.72;;;;;;;;;;5117162;27;37640;-81
2021/06/24 03:42:44;;;;;;;7.68;5.10;;;;;;;;;;5095170;28;37409;-81
2021/06/24 03:45:13;;;;;;;6.13;4.30;;;;;;;;;;5109891;27;35152;-81
2021/06/24 03:47:41;;;;;;;6.43;4.18;;;;;;;;;;5108603;28;39609;-80
2021/06/24 03:50:10;;;;;;;6.95;4.38;;;;;;;;;;5109290;27;39833;-80
2021/06/24 03:52:39;;;;;;;6.57;4.63;;;;;;;;;;5103577;27;37961;-80
2021/06/24 03:55:06;;;;;;;8.10;4.53;;;;;;;;;;5102122;27;37024;-79
2021/06/24 03:57:39;;;;;;;7.05;4.60;;;;;;;;;;5105161;27;38988;-79
2021/06/24 04:00:06;;;;;;;8.73;4.78;;;;;;;;;;5078026;27;37553;-80
2021/06/24 04:02:32;;;;;;;4.72;4.32;;;;;;;;;;5092326;27;47550;-79
2021/06/24 04:04:59;;;;;;;5.72;3.80;;;;;;;;;;5078789;28;36065;-79
2021/06/24 04:07:26;;;;;;;4.63;4.15;;;;;;;;;;5091583;27;39256;-80
2021/06/24 04:10:11;;;;;;;7.60;4.63;;;;;;;;;;5088151;27;38230;-79
2021/06/24 04:12:40;;;;;;;5.93;4.18;;;;;;;;;;5055911;28;47862;-80
2021/06/24 04:15:07;;;;;;;10.48;4.65;;;;;;;;;;5099303;28;36421;-79
2021/06/24 04:17:33;;;;;;;7.82;4.88;;;;;;;;;;5112925;27;40202;-81
2021/06/24 04:20:00;;;;;;;8.82;4.93;;;;;;;;;;5104512;27;40104;-80
2021/06/24 04:22:27;;;;;;;9.73;4.97;;;;;;;;;;5097183;27;37591;-81
2021/06/24 04:24:54;;;;;;;9.73;5.03;;;;;;;;;;5122430;27;34440;-81
2021/06/24 04:27:20;;;;;;;6.45;4.63;;;;;;;;;;5090386;27;39265;-80
2021/06/24 04:29:47;;;;;;;7.57;4.75;;;;;;;;;;5126253;27;38985;-80
2021/06/24 04:32:14;;;;;;;7.82;4.57;;;;;;;;;;5134896;27;38073;-79
2021/06/24 04:34:40;;;;;;;6.90;4.38;;;;;;;;;;5133290;27;36934;-80
2021/06/24 04:37:07;;;;;;;7.53;4.70;;;;;;;;;;5116839;27;39593;-78
2021/06/24 04:39:33;;;;;;;7.75;4.10;;;;;;;;;;5130905;27;41688;-79
2021/06/24 04:41:59;;;;;;;5.95;4.10;;;;;;;;;;5126536;27;36928;-80
2021/06/24 04:44:26;;;;;;;6.78;4.03;;;;;;;;;;5129138;27;37030;-79
2021/06/24 04:46:54;;;;;;;8.88;4.05;;;;;;;;;;5115887;27;38055;-78
2021/06/24 04:49:20;;;;;;;8.93;4.90;;;;;;;;;;5116289;27;37913;-80
2021/06/24 04:51:47;;;;;;;9.18;5.07;;;;;;;;;;5131560;27;37268;-79
2021/06/24 04:54:13;;;;;;;9.80;5.13;;;;;;;;;;5128376;27;37427;-79
2021/06/24 04:56:39;;;;;;;7.82;4.63;;;;;;;;;;5115649;27;39030;-80
2021/06/24 04:59:06;;;;;;;8.38;4.55;;;;;;;;;;5127668;27;37613;-80
2021/06/24 05:01:32;;;;;;;7.68;4.72;;;;;;;;;;5117226;27;38621;-80
2021/06/24 05:03:58;;;;;;;10.35;4.72;;;;;;;;;;5119160;27;35891;-79
2021/06/24 05:06:25;;;;;;;11.77;4.85;;;;;;;;;;5113492;27;37655;-78
2021/06/24 05:08:58;;;;;;;8.88;4.55;;;;;;;;;;5134238;27;38987;-81
2021/06/24 05:11:24;;;;;;;6.68;4.95;;;;;;;;;;5138599;27;38077;-80
2021/06/24 05:13:50;;;;;;;5.15;4.45;;;;;;;;;;5120529;27;36016;-80
2021/06/24 05:16:17;;;;;;;5.85;4.53;;;;;;;;;;5135056;27;38796;-77
2021/06/24 05:18:43;;;;;;;5.32;3.83;;;;;;;;;;5127259;27;38488;-80
2021/06/24 05:21:12;;;;;;;5.93;4.03;;;;;;;;;;5119720;27;39559;-78
2021/06/24 05:23:38;;;;;;;8.57;4.15;;;;;;;;;;5134446;27;37400;-79
2021/06/24 05:26:05;;;;;;;8.13;4.07;;;;;;;;;;5139187;27;37945;-78
2021/06/24 05:28:31;;;;;;;6.80;3.70;;;;;;;;;;5119470;27;38610;-79
2021/06/24 05:30:58;;;;;;;8.90;3.92;;;;;;;;;;5130066;27;39095;-78
2021/06/24 05:33:24;;;;;;;6.30;3.75;;;;;;;;;;5127311;27;37005;-79
2021/06/24 05:35:50;;;;;;;4.90;3.50;;;;;;;;;;5132981;27;38704;-78
2021/06/24 05:38:17;;;;;;;7.95;3.45;;;;;;;;;;5114699;27;39170;-80
2021/06/24 05:40:44;;;;;;;5.70;3.42;;;;;;;;;;5135908;27;37564;-80
2021/06/24 05:43:11;;;;;;;5.78;3.38;;;;;;;;;;5122711;27;37755;-81
2021/06/24 05:45:41;;;;;;;5.30;3.40;;;;;;;;;;5132361;27;39487;-79
2021/06/24 05:48:08;;;;;;;7.03;3.55;;;;;;;;;;5137838;27;38859;-80
2021/06/24 05:50:34;;;;;;;7.38;3.42;;;;;;;;;;5133932;27;37393;-80
2021/06/24 05:53:01;;;;;;;7.72;2.90;;;;;;;;;;5119877;27;37495;-79
2021/06/24 05:55:50;;;;;;;6.32;2.88;;;;;;;;;;5117924;27;46530;-79
2021/06/24 05:58:23;;;;;;;7.30;3.00;;;;;;;;;;5137487;27;39338;-79
2021/06/24 06:00:51;;;;;;;7.90;3.08;;;;;;;;;;5120465;27;36993;-80
2021/06/24 06:03:21;;;;;;;8.65;3.17;;;;;;;;;;5127100;27;37546;-80
2021/06/24 06:05:48;;;;;;;5.28;3.38;;;;;;;;;;5143150;27;39542;-81
2021/06/24 06:08:18;;;;;;;7.00;3.80;;;;;;;;;;5139226;27;40439;-80
2021/06/24 06:10:45;;;;;;;4.68;3.35;;;;;;;;;;5119548;27;36711;-80
2021/06/24 06:13:12;;;;;;;7.72;3.72;;;;;;;;;;5130334;27;39319;-80
2021/06/24 06:15:43;;;;;;;7.40;3.67;;;;;;;;;;5112374;27;38073;-80
2021/06/24 06:18:17;;;;;;;5.40;3.80;;;;;;;;;;5123237;27;37454;-81
2021/06/24 06:20:45;;;;;;;7.78;3.47;;;;;;;;;;5131430;27;37792;-81
2021/06/24 06:23:15;;;;;;;7.18;3.85;;;;;;;;;;5115460;27;35830;-80
2021/06/24 06:25:50;;;;;;;3.25;2.78;;;;;;;;;;5130358;27;39530;-82
2021/06/24 06:28:17;;;;;;;6.82;3.05;;;;;;;;;;5136215;27;38461;-80
2021/06/24 06:30:59;;;;;;;6.45;3.58;;;;;;;;;;5127600;27;37001;-82
2021/06/24 06:33:51;;;;;;;7.47;3.13;;;;;;;;;;5084695;28;36170;-82
2021/06/24 06:36:39;;;;;;;4.75;2.88;;;;;;;;;;5097428;27;40138;-81
2021/06/24 06:39:23;;;;;;;6.13;2.45;;;;;;;;;;5067959;28;39904;-82
2021/06/24 06:41:53;;;;;;;9.50;3.05;;;;;;;;;;5071859;27;38387;-82
2021/06/24 06:44:37;;;;;;;5.43;2.75;;;;;;;;;;5070659;28;39138;-81
2021/06/24 06:47:05;;;;;;;6.57;3.03;;;;;;;;;;5055264;28;39298;-81
2021/06/24 06:49:31;;;;;;;5.07;3.13;;;;;;;;;;5052801;28;37270;-80
2021/06/24 06:52:00;;;;;;;4.32;2.72;;;;;;;;;;5024251;28;39184;-80
2021/06/24 06:54:27;;;;;;;4.05;2.45;;;;;;;;;;5052202;28;47549;-80
2021/06/24 06:56:53;;;;;;;6.65;2.85;;;;;;;;;;5033205;28;40017;-80
2021/06/24 06:59:19;;;;;;;6.30;3.20;;;;;;;;;;5053984;28;38740;-80
2021/06/24 07:01:46;;;;;;;7.93;2.75;;;;;;;;;;5055635;28;38025;-80
2021/06/24 07:04:12;;;;;;;6.03;3.20;;;;;;;;;;5051531;28;37049;-80
2021/06/24 07:06:42;;;;;;;4.43;2.45;;;;;;;;;;5078853;28;38142;-80
2021/06/24 07:09:14;;;;;;;4.93;2.85;;;;;;;;;;5095991;27;37818;-80
2021/06/24 07:11:41;;;;;;;6.28;3.25;;;;;;;;;;5098129;27;36793;-80
2021/06/24 07:14:07;;;;;;;4.70;2.58;;;;;;;;;;5102943;28;36430;-80
2021/06/24 07:16:37;;;;;;;10.70;3.00;;;;;;;;;;5104411;27;39354;-81
2021/06/24 07:19:03;;;;;;;8.65;3.42;;;;;;;;;;5105533;27;36930;-79
2021/06/24 07:21:30;;;;;;;6.25;3.15;;;;;;;;;;5087151;28;38257;-80
2021/06/24 07:23:56;;;;;;;7.63;2.83;;;;;;;;;;5097141;28;36393;-80
2021/06/24 07:26:23;;;;;;;5.18;2.50;;;;;;;;;;5083642;27;38547;-80
2021/06/24 07:28:49;;;;;;;5.35;2.65;;;;;;;;;;5087009;28;38776;-79
2021/06/24 07:31:16;;;;;;;10.55;2.60;;;;;;;;;;5075733;27;38011;-80
2021/06/24 07:33:42;;;;;;;4.80;2.83;;;;;;;;;;5085130;28;36423;-79
2021/06/24 07:36:12;;;;;;;6.10;2.97;;;;;;;;;;5078463;28;38943;-79
2021/06/24 07:38:39;;;;;;;4.90;2.78;;;;;;;;;;5070856;28;38856;-79
2021/06/24 07:41:05;;;;;;;4.63;2.30;;;;;;;;;;5065926;28;38358;-79
2021/06/24 07:43:35;;;;;;;5.20;2.55;;;;;;;;;;5099148;27;36130;-79
2021/06/24 07:46:01;;;;;;;3.67;2.15;;;;;;;;;;5119870;27;39207;-79
2021/06/24 07:48:29;;;;;;;5.32;2.78;;;;;;;;;;5124887;27;47411;-81
2021/06/24 07:50:55;;;;;;;9.68;3.20;;;;;;;;;;5145206;27;38163;-79
2021/06/24 07:53:29;;;;;;;6.43;2.90;;;;;;;;;;5133214;27;37690;-77
2021/06/24 07:55:55;;;;;;;4.38;2.28;;;;;;;;;;5130326;27;38845;-78
2021/06/24 07:58:25;;;;;;;3.95;2.30;;;;;;;;;;5129079;27;40883;-78
2021/06/24 08:00:51;;;;;;;3.55;2.10;;;;;;;;;;5105501;27;38172;-80
2021/06/24 08:03:18;;;;;;;3.72;2.10;;;;;;;;;;5129457;27;36797;-79
2021/06/24 08:05:44;;;;;;;9.82;2.38;;;;;;;;;;5135877;27;39629;-79
2021/06/24 08:08:11;;;;;;;4.30;2.40;;;;;;;;;;5105283;27;38927;-80
2021/06/24 08:10:37;;;;;;;4.55;2.13;;;;;;;;;;5112865;27;37846;-79
2021/06/24 08:13:13;;;;;;;3.53;2.55;;;;;;;;;;5102620;27;37760;-79
2021/06/24 08:15:40;;;;;;;3.95;2.00;;;;;;;;;;5100170;27;41684;-80
2021/06/24 08:18:06;;;;;;;5.80;1.90;;;;;;;;;;5145829;27;38981;-79
2021/06/24 08:20:35;;;;;;;5.68;2.05;;;;;;;;;;5123971;27;38610;-80
2021/06/24 08:23:05;;;;;;;4.05;1.98;;;;;;;;;;5119722;27;39355;-82
2021/06/24 08:25:35;;;;;;;3.28;1.88;;;;;;;;;;5134420;27;39321;-79
2021/06/24 08:28:14;;;;;;;8.85;2.05;;;;;;;;;;5139535;27;39592;-80
2021/06/24 08:30:47;;;;;;;5.25;2.50;;;;;;;;;;5076346;27;47408;-79
2021/06/24 08:33:13;;;;;;;5.53;2.35;;;;;;;;;;5108649;27;36525;-80
2021/06/24 08:35:40;;;;;;;4.38;2.20;;;;;;;;;;5094810;28;38207;-80
2021/06/24 08:38:10;;;;;;;5.10;1.90;;;;;;;;;;5113298;27;39934;-79
2021/06/24 08:40:40;;;;;;;5.05;2.40;;;;;;;;;;5086879;28;37804;-81
2021/06/24 08:43:07;;;;;;;4.90;2.35;;;;;;;;;;5088580;28;36683;-81
2021/06/24 08:45:38;;;;;;;4.47;2.45;;;;;;;;;;5093185;27;38230;-80
2021/06/24 08:48:09;;;;;;;8.57;3.13;;;;;;;;;;5088696;27;37422;-80
2021/06/24 08:50:38;;;;;;;5.93;2.42;;;;;;;;;;5104011;27;36795;-80
2021/06/24 08:53:06;;;;;;;8.85;3.40;;;;;;;;;;5075192;27;36134;-80
2021/06/24 08:55:45;;;;;;;5.22;3.20;;;;;;;;;;5109885;27;39450;-81
2021/06/24 08:58:12;;;;;;;5.68;3.08;;;;;;;;;;5112255;27;39466;-81
2021/06/24 09:00:49;;;;;;;4.85;2.22;;;;;;;;;;5111827;27;36676;-81
2021/06/24 09:03:21;;;;;;;4.45;2.33;;;;;;;;;;5120085;27;36034;-81
2021/06/24 09:06:07;;;;;;;4.55;2.60;;;;;;;;;;5138181;27;39475;-82
2021/06/24 09:08:45;;;;;;;5.18;2.58;;;;;;;;;;5064984;28;40680;-81
2021/06/24 09:11:30;;;;;;;5.65;2.50;;;;;;;;;;5053143;28;38659;-79
2021/06/24 09:14:02;;;;;;;5.03;2.30;;;;;;;;;;5066547;28;37921;-80
2021/06/24 09:16:31;;;;;;;5.55;2.58;;;;;;;;;;5059709;28;48240;-80
2021/06/24 09:19:24;;;;;;;4.25;2.45;;;;;;;;;;5067665;28;40267;-80
2021/06/24 09:22:15;;;;;;;7.75;2.95;;;;;;;;;;5062647;28;47365;-79
2021/06/24 09:24:49;;;;;;;5.65;2.65;;;;;;;;;;5060076;28;47637;-80
2021/06/24 09:27:29;;;;;;;4.40;2.75;;;;;;;;;;5047260;28;38125;-79
2021/06/24 09:30:02;;;;;;;4.15;2.35;;;;;;;;;;5090541;28;37778;-80
2021/06/24 09:32:39;;;;;;;7.05;2.90;;;;;;;;;;5099718;27;37204;-79
2021/06/24 09:35:06;;;;;;;3.65;2.10;;;;;;;;;;5103613;28;37159;-79
2021/06/24 09:37:51;;;;;;;5.32;2.35;;;;;;;;;;5049707;27;47478;-79
2021/06/24 09:40:18;;;;;;;2.90;1.80;;;;;;;;;;5122976;27;38434;-79
2021/06/24 09:42:44;;;;;;;4.72;2.55;;;;;;;;;;5126027;27;37925;-80
2021/06/24 09:45:11;;;;;;;4.70;1.77;;;;;;;;;;5129195;27;36345;-79
2021/06/24 09:47:38;;;;;;;6.78;2.70;;;;;;;;;;5128181;27;41487;-79
2021/06/24 09:50:06;;;;;;;3.92;2.53;;;;;;;;;;5128666;27;38453;-78
2021/06/24 09:52:32;;;;;;;3.97;2.10;;;;;;;;;;5108119;28;39046;-79
2021/06/24 09:55:03;;;;;;;5.70;2.78;;;;;;;;;;5116622;27;36588;-78
2021/06/24 09:57:30;;;;;;;4.07;2.50;;;;;;;;;;5113885;27;47003;-78
2021/06/24 10:00:16;;;;;;;3.10;2.25;;;;;;;;;;5134332;27;41007;-79
2021/06/24 10:03:00;;;;;;;6.95;2.45;;;;;;;;;;5080179;27;46928;-78
2021/06/24 10:05:27;;;;;;;4.68;2.70;;;;;;;;;;5119601;27;47110;-77
2021/06/24 10:07:53;;;;;;;5.00;2.72;;;;;;;;;;5142292;27;40219;-79
2021/06/24 10:10:23;;;;;;;5.28;2.55;;;;;;;;;;5124441;27;39031;-79
2021/06/24 10:12:49;;;;;;;4.50;2.95;;;;;;;;;;5128266;27;38533;-79
2021/06/24 10:15:28;;;;;;;3.83;2.20;;;;;;;;;;5138479;27;35688;-79
2021/06/24 10:17:56;;;;;;;5.57;2.53;;;;;;;;;;5131868;27;41419;-79
2021/06/24 10:20:24;;;;;;;3.58;2.22;;;;;;;;;;5129981;27;37715;-78
2021/06/24 10:22:55;;;;;;;4.60;3.05;;;;;;;;;;5136282;27;38336;-79
2021/06/24 10:25:22;;;;;;;3.08;2.30;;;;;;;;;;5136243;27;38008;-79
2021/06/24 10:27:52;;;;;;;5.18;2.80;;;;;;;;;;5139882;27;38971;-79
2021/06/24 10:30:22;;;;;;;6.05;2.40;;;;;;;;;;5134654;27;38899;-79
2021/06/24 10:33:07;;;;;;;6.07;3.05;;;;;;;;;;5113250;27;40357;-79
2021/06/24 10:35:35;;;;;;;4.88;2.65;;;;;;;;;;5096746;27;47996;-78
2021/06/24 10:38:02;;;;;;;5.63;2.85;;;;;;;;;;5123730;27;38416;-79
2021/06/24 10:40:53;;;;;;;7.22;2.70;;;;;;;;;;5121478;27;39267;-79
2021/06/24 10:43:20;;;;;;;5.03;3.30;;;;;;;;;;5088492;28;39058;-79
2021/06/24 10:45:47;;;;;;;3.20;2.63;;;;;;;;;;5125084;27;37713;-79
2021/06/24 10:48:26;;;;;;;7.03;2.85;;;;;;;;;;5154326;27;38591;-79
2021/06/24 10:51:04;;;;;;;7.75;3.08;;;;;;;;;;5096961;27;41140;-78
2021/06/24 10:53:37;;;;;;;6.57;2.60;;;;;;;;;;5114077;27;47532;-79
2021/06/24 10:56:23;;;;;;;5.13;2.67;;;;;;;;;;5116291;27;37447;-78
2021/06/24 10:58:52;;;;;;;4.43;2.88;;;;;;;;;;5151759;27;40310;-79
2021/06/24 11:01:39;;;;;;;5.13;3.30;;;;;;;;;;5147571;27;36969;-78
2021/06/24 11:04:05;;;;;;;3.80;2.80;;;;;;;;;;5133692;27;39619;-79
2021/06/24 11:06:51;;;;;;;7.15;3.40;;;;;;;;;;5134142;27;38646;-79
2021/06/24 11:09:19;;;;;;;6.13;3.30;;;;;;;;;;5111121;27;39108;-78
2021/06/24 11:11:54;;;;;;;8.20;3.35;;;;;;;;;;5137046;27;39069;-78
2021/06/24 11:14:41;;;;;;;11.40;3.47;;;;;;;;;;5143931;27;38804;-80
2021/06/24 11:17:26;;;;;;;3.60;2.85;;;;;;;;;;5128679;27;36553;-80
2021/06/24 11:20:12;;;;;;;7.13;3.08;;;;;;;;;;5142481;27;39040;-79
2021/06/24 11:22:52;;;;;;;4.63;2.58;;;;;;;;;;5116242;27;48118;-79
2021/06/24 11:25:18;;;;;;;3.47;2.97;;;;;;;;;;5111062;27;38367;-79
2021/06/24 11:27:45;;;;;;;5.07;2.78;;;;;;;;;;5134962;27;37025;-79
2021/06/24 11:30:12;;;;;;;6.47;3.15;;;;;;;;;;5135900;27;39595;-79
2021/06/24 11:32:44;;;;;;;4.50;3.17;;;;;;;;;;5121258;27;41266;-79
2021/06/24 11:35:29;;;;;;;4.95;2.60;;;;;;;;;;5120526;27;37143;-79
2021/06/24 11:37:59;;;;;;;6.18;3.10;;;;;;;;;;5115500;27;36886;-78
2021/06/24 11:40:26;;;;;;;4.95;3.38;;;;;;;;;;5108751;27;43552;-79
2021/06/24 11:42:58;;;;;;;4.38;3.10;;;;;;;;;;5114704;27;38499;-78
2021/06/24 11:45:28;;;;;;;5.90;2.88;;;;;;;;;;5154283;27;37987;-80
2021/06/24 11:47:57;;;;;;;5.40;2.70;;;;;;;;;;5279076;22;36035;-78
2021/06/24 12:04:25;;;;;;;4.32;2.78;;;;;;;;;;5043792;28;39450;-80
2021/06/24 12:07:15;;;;;;;5.93;2.55;;;;;;;;;;5049099;28;40136;-80
2021/06/24 12:09:53;;;;;;;3.15;2.20;;;;;;;;;;5039877;28;48314;-80
2021/06/24 12:12:21;;;;;;;7.82;2.67;;;;;;;;;;5021412;28;40174;-80
2021/06/24 12:18:09;;;;;;;3.97;3.00;;;;;;;;;;5706171;22;50648;-79
2021/06/24 12:20:36;;;;;;;6.18;3.10;;;;;;;;;;5073939;28;37839;-80
2021/06/24 12:23:05;;;;;;;4.28;2.67;;;;;;;;;;5071392;28;38493;-79
2021/06/24 12:44:40;;;;;;;;;;;;;;;;;;5566548;23;20039;-78
2021/06/24 13:07:29;;;;;;;3.65;2.67;;;;;;;;;;5346748;23;20901;-80
2021/06/24 14:05:28;;;;;;;3.97;2.45;;;;;;;;;;5005390;28;39471;-81
2021/06/24 15:03:37;;;;;;;5.00;2.97;;;;;;;;;;6054165;23;20059;31
2021/06/24 15:06:05;;;;;;;5.18;2.45;;;;;;;;;;4949260;28;38368;-79
2021/06/24 15:08:31;;;;;;;3.53;2.55;;;;;;;;;;4939640;28;37665;-79
2021/06/24 15:11:00;;;;;;;3.90;2.95;;;;;;;;;;4924899;28;36492;-79
2021/06/24 15:13:30;;;;;;;6.40;2.90;;;;;;;;;;4929131;28;37250;-79
2021/06/24 15:16:05;;;;;;;3.45;2.50;;;;;;;;;;4899582;29;39982;-78
2021/06/24 15:18:31;;;;;;;5.72;2.78;;;;;;;;;;4920347;29;48992;-77
2021/06/24 15:20:57;;;;;;;6.00;2.60;;;;;;;;;;4919839;29;38010;-79
2021/06/24 15:23:24;;;;;;;4.05;1.98;;;;;;;;;;4910305;29;36847;-78
2021/06/24 15:25:50;;;;;;;4.43;1.90;;;;;;;;;;4937428;29;39169;-77
2021/06/24 15:28:18;;;;;;;5.47;2.55;;;;;;;;;;4920728;29;38734;-78
2021/06/24 15:30:45;;;;;;;5.65;2.55;;;;;;;;;;4917147;28;38091;-78
2021/06/24 15:33:14;;;;;;;5.03;2.30;;;;;;;;;;4930458;28;37220;-79
2021/06/24 15:35:41;;;;;;;5.50;2.00;;;;;;;;;;4927702;29;38583;-77
2021/06/24 15:38:09;;;;;;;6.53;2.70;;;;;;;;;;4920548;28;36468;-79
2021/06/24 15:40:35;;;;;;;4.20;1.88;;;;;;;;;;4916934;29;38492;-78
2021/06/24 15:43:02;;;;;;;7.40;2.47;;;;;;;;;;4937892;28;36547;-80
2021/06/24 15:45:29;;;;;;;5.60;2.38;;;;;;;;;;4933035;28;37964;-79
2021/06/24 15:47:56;;;;;;;5.90;2.35;;;;;;;;;;4933357;29;38847;-80
2021/06/24 15:50:24;;;;;;;4.40;2.00;;;;;;;;;;4918208;29;38085;-80
2021/06/24 15:52:51;;;;;;;6.10;2.28;;;;;;;;;;4938926;28;36182;-79
2021/06/24 15:55:19;;;;;;;6.97;2.55;;;;;;;;;;4937451;28;38000;-80
2021/06/24 15:57:46;;;;;;;3.95;2.30;;;;;;;;;;5136709;23;39333;-80
2021/06/24 16:00:15;;;;;;;5.05;2.03;;;;;;;;;;4974203;28;38288;-82
2021/06/24 16:29:30;;;;;;;4.60;2.35;;;;;;;;;;5641802;23;20050;-82
2021/06/24 16:35:01;;;;;;;4.70;1.85;;;;;;;;;;5554483;23;20047;-79
2021/06/24 16:42:43;;;;;;;4.20;2.05;;;;;;;;;;5776238;23;20656;-80
2021/06/24 16:47:50;;;;;;;2.38;1.75;;;;;;;;;;6020263;23;20018;-79
2021/06/24 16:50:17;;;;;;;5.05;2.53;;;;;;;;;;5009998;28;38276;-79
2021/06/24 16:53:02;;;;;;;3.90;1.60;;;;;;;;;;5004588;28;37808;-80
2021/06/24 17:01:20;;;;;;;7.97;2.60;;;;;;;;;;5089204;23;20047;-78
2021/06/24 17:04:08;;;;;;;4.32;2.03;;;;;;;;;;4932184;28;48831;-80
2021/06/24 17:14:23;;;;;;;5.60;1.85;;;;;;;;;;5719248;23;20059;-80
2021/06/24 17:19:53;;;;;;;;;;;;;;;;;;;;;
2021/06/24 17:22:38;;;;;;;5.55;2.15;;;;;;;;;;4986297;28;40053;-81
2021/06/24 17:27:44;;;;;;;3.40;1.48;;;;;;;;;;4972298;26;20046;-81
2021/06/24 17:30:21;;;;;;;6.05;2.22;;;;;;;;;;5005901;28;38925;-80
2021/06/24 17:32:59;;;;;;;4.22;1.90;;;;;;;;;;4999312;28;39235;-79
2021/06/24 17:35:26;;;;;;;5.18;2.20;;;;;;;;;;4999635;28;37843;-80
2021/06/24 17:37:58;;;;;;;4.43;2.38;;;;;;;;;;4994084;28;38787;-80
2021/06/24 17:41:03;;;;;;;5.50;2.30;;;;;;;;;;4997121;28;38992;-80
2021/06/24 17:56:38;;;;;;;2.25;1.63;;;;;;;;;;5642682;23;20038;-81
2021/06/24 17:59:24;;;;;;;2.78;1.67;;;;;;;;;;4955618;28;36436;-81
2021/06/24 18:07:12;;;;;;;3.72;1.90;;;;;;;;;;5580613;23;20029;-80
2021/06/24 18:09:39;;;;;;;4.63;1.95;;;;;;;;;;5004564;23;37006;-80
2021/06/24 18:12:05;;;;;;;4.38;2.50;;;;;;;;;;4941687;28;39067;-79
2021/06/24 18:14:39;;;;;;;5.53;2.20;;;;;;;;;;4961998;28;37646;-80
2021/06/24 18:17:16;;;;;;;3.83;1.90;;;;;;;;;;4956566;28;39212;-79
2021/06/24 18:20:02;;;;;;;3.15;1.90;;;;;;;;;;4975984;28;36977;-79
2021/06/24 18:22:49;;;;;;;3.85;1.73;;;;;;;;;;4959097;28;48453;-80
2021/06/24 18:25:30;;;;;;;4.47;2.30;;;;;;;;;;4952424;28;38548;-80
2021/06/24 18:27:57;;;;;;;4.85;2.08;;;;;;;;;;4982702;28;38200;-79
2021/06/24 18:30:27;;;;;;;3.55;2.33;;;;;;;;;;4952841;28;38375;-80
2021/06/24 18:41:30;;;;;;;6.57;2.50;;;;;;;;;;5439011;23;20058;-81
2021/06/24 18:47:20;;;;;;;4.25;1.42;;;;;;;;;;4994888;28;50766;-81
2021/06/24 18:50:03;;;;;;;1.48;0.90;;;;;;;;;;4993874;28;49881;-81
2021/06/24 18:52:32;;;;;;;2.53;0.70;;;;;;;;;;4950845;28;49019;-80
2021/06/24 18:55:02;;;;;;;2.47;0.63;;;;;;;;;;4995108;28;40284;-80
2021/06/24 18:57:31;;;;;;;3.15;0.82;;;;;;;;;;4992812;28;48342;-80
2021/06/24 19:00:32;;;;;;;3.45;0.80;;;;;;;;;;4994726;28;37620;-81
2021/06/24 19:03:06;;;;;;;2.75;0.95;;;;;;;;;;5003614;28;47544;-81
2021/06/24 19:06:01;;;;;;;1.88;0.93;;;;;;;;;;5007949;28;48679;-82
2021/06/24 19:08:32;;;;;;;2.10;0.90;;;;;;;;;;5420170;23;48002;-79
2021/06/24 19:11:02;;;;;;;1.08;0.90;;;;;;;;;;4950266;28;37934;-80
2021/06/24 19:13:49;;;;;;;2.67;1.00;;;;;;;;;;4945099;28;48788;-81
2021/06/24 19:16:36;;;;;;;1.52;0.95;;;;;;;;;;4949833;28;40282;-81
2021/06/24 19:19:29;;;;;;;2.60;1.15;;;;;;;;;;4922326;28;38309;-81
2021/06/24 19:22:13;;;;;;;3.80;1.20;;;;;;;;;;4920956;28;49093;-80